createdAt,value
2017-12-13T00:02:22.444Z,86.00
2017-12-13T00:29:14.608Z,86.50
2017-12-13T00:31:43.350Z,86.60
2017-12-13T00:34:12.109Z,86.40
2017-12-13T00:36:40.929Z,87.30
2017-12-13T00:39:09.676Z,87.70
2017-12-13T00:41:39.151Z,87.00
2017-12-13T00:44:07.886Z,87.00
2017-12-13T00:46:36.646Z,86.80
2017-12-13T00:49:05.351Z,87.20
2017-12-13T00:51:35.080Z,86.90
2017-12-13T00:54:03.816Z,86.80
2017-12-13T00:56:32.618Z,86.70
2017-12-13T00:59:01.313Z,86.70
2017-12-13T01:01:30.248Z,87.20
2017-12-13T01:03:59.205Z,87.10
2017-12-13T01:06:28.704Z,87.50
2017-12-13T01:08:57.501Z,87.50
2017-12-13T01:11:26.966Z,87.20
2017-12-13T01:13:55.713Z,87.20
2017-12-13T01:16:24.408Z,86.90
2017-12-13T01:18:53.107Z,87.60
2017-12-13T01:21:22.072Z,87.70
2017-12-13T01:23:51.524Z,87.30
2017-12-13T01:26:20.248Z,87.30
2017-12-13T01:28:48.957Z,87.40
2017-12-13T01:31:18.421Z,86.80
2017-12-13T01:33:47.155Z,86.80
2017-12-13T01:36:15.882Z,86.60
2017-12-13T01:38:44.800Z,86.50
2017-12-13T01:41:13.519Z,86.30
2017-12-13T01:43:43.019Z,86.20
2017-12-13T01:46:12.502Z,85.80
2017-12-13T01:48:41.199Z,85.80
2017-12-13T01:51:10.701Z,86.50
2017-12-13T01:53:39.434Z,87.10
2017-12-13T01:56:08.352Z,87.10
2017-12-13T01:58:37.091Z,87.20
2017-12-13T02:01:05.808Z,87.30
2017-12-13T02:03:34.521Z,87.30
2017-12-13T02:06:03.134Z,87.40
2017-12-13T02:08:31.840Z,87.50
2017-12-13T02:11:01.523Z,87.20
2017-12-13T02:13:29.945Z,87.20
2017-12-13T02:15:58.657Z,87.00
2017-12-13T02:18:27.375Z,86.90
2017-12-13T02:20:55.468Z,86.60
2017-12-13T02:23:23.829Z,86.80
2017-12-13T02:25:52.517Z,86.70
2017-12-13T02:28:21.222Z,86.50
2017-12-13T02:30:50.932Z,86.70
2017-12-13T02:33:20.429Z,86.50
2017-12-13T02:35:49.157Z,86.50
2017-12-13T02:38:17.832Z,86.50
2017-12-13T02:41:01.764Z,86.90
2017-12-13T02:43:31.240Z,86.90
2017-12-13T02:45:59.952Z,86.80
2017-12-13T02:48:29.471Z,86.60
2017-12-13T02:50:58.178Z,86.50
2017-12-13T02:53:26.899Z,86.30
2017-12-13T02:55:54.981Z,86.60
2017-12-13T02:58:23.241Z,86.60
2017-12-13T03:00:51.652Z,86.70
2017-12-13T03:03:20.368Z,86.70
2017-12-13T03:05:49.125Z,87.00
2017-12-13T03:08:17.868Z,87.20
2017-12-13T03:10:46.620Z,87.30
2017-12-13T03:13:16.091Z,87.30
2017-12-13T03:15:44.476Z,87.30
2017-12-13T03:18:13.433Z,87.80
2017-12-13T03:20:41.805Z,87.70
2017-12-13T03:23:10.522Z,87.20
2017-12-13T03:25:39.252Z,86.80
2017-12-13T03:28:08.736Z,86.90
2017-12-13T03:30:37.673Z,86.90
2017-12-13T03:33:06.450Z,87.10
2017-12-13T03:35:35.920Z,86.60
2017-12-13T03:38:04.634Z,86.60
2017-12-13T03:40:34.128Z,87.00
2017-12-13T03:43:03.033Z,86.90
2017-12-13T03:45:32.796Z,87.00
2017-12-13T03:48:01.561Z,87.00
2017-12-13T03:50:30.266Z,87.10
2017-12-13T03:52:58.992Z,86.90
2017-12-13T03:55:27.726Z,87.20
2017-12-13T03:57:56.120Z,87.10
2017-12-13T04:00:24.169Z,87.20
2017-12-13T04:02:53.117Z,87.10
2017-12-13T04:05:21.842Z,87.20
2017-12-13T04:07:50.567Z,87.30
2017-12-13T04:10:19.340Z,87.10
2017-12-13T04:12:48.030Z,87.20
2017-12-13T04:15:16.957Z,87.40
2017-12-13T04:17:45.912Z,87.40
2017-12-13T04:20:14.617Z,87.30
2017-12-13T04:22:43.354Z,87.30
2017-12-13T04:25:12.845Z,87.60
2017-12-13T04:27:41.825Z,87.60
2017-12-13T04:30:10.593Z,87.10
2017-12-13T04:32:39.317Z,86.90
2017-12-13T04:35:08.045Z,87.00
2017-12-13T04:37:37.004Z,86.80
2017-12-13T04:40:06.453Z,87.50
2017-12-13T04:42:35.393Z,87.50
2017-12-13T04:45:04.113Z,88.00
2017-12-13T04:47:32.836Z,88.30
2017-12-13T04:50:01.557Z,88.50
2017-12-13T04:52:30.497Z,88.50
2017-12-13T04:54:59.454Z,88.70
2017-12-13T04:57:28.924Z,88.70
2017-12-13T04:59:57.912Z,88.70
2017-12-13T05:02:26.880Z,88.50
2017-12-13T05:04:55.590Z,88.30
2017-12-13T05:07:24.547Z,88.90
2017-12-13T05:09:52.969Z,88.00
2017-12-13T05:12:21.939Z,87.70
2017-12-13T05:14:50.912Z,87.70
2017-12-13T05:17:19.668Z,87.60
2017-12-13T05:19:49.374Z,87.70
2017-12-13T05:22:18.100Z,87.60
2017-12-13T05:24:47.571Z,87.60
2017-12-13T05:27:16.521Z,87.50
2017-12-13T05:29:45.259Z,87.70
2017-12-13T05:32:14.229Z,87.90
2017-12-13T05:34:42.759Z,88.00
2017-12-13T05:37:12.221Z,87.80
2017-12-13T05:39:41.173Z,87.90
2017-12-13T05:42:10.176Z,88.00
2017-12-13T05:44:38.932Z,88.20
2017-12-13T05:47:07.874Z,88.40
2017-12-13T05:54:41.692Z,88.50
2017-12-13T05:57:11.260Z,88.20
2017-12-13T05:59:41.201Z,88.50
2017-12-13T06:02:10.205Z,88.10
2017-12-13T06:04:38.957Z,88.00
2017-12-13T06:07:08.698Z,88.20
2017-12-13T06:09:37.438Z,88.10
2017-12-13T06:12:06.240Z,88.30
2017-12-13T06:14:35.211Z,88.20
2017-12-13T06:17:04.737Z,88.80
2017-12-13T06:19:34.280Z,88.50
2017-12-13T06:22:03.036Z,88.60
2017-12-13T06:24:32.026Z,88.40
2017-12-13T06:27:00.783Z,88.10
2017-12-13T06:29:29.741Z,87.90
2017-12-13T06:31:59.493Z,87.90
2017-12-13T06:34:28.895Z,88.00
2017-12-13T06:36:57.667Z,87.90
2017-12-13T06:39:26.378Z,88.40
2017-12-13T06:41:54.846Z,88.30
2017-12-13T06:44:23.564Z,88.10
2017-12-13T06:46:52.277Z,87.90
2017-12-13T06:49:21.046Z,87.70
2017-12-13T06:51:50.033Z,88.20
2017-12-13T06:54:20.673Z,88.40
2017-12-13T06:56:50.206Z,88.30
2017-12-13T06:59:19.696Z,88.00
2017-12-13T07:01:48.665Z,88.00
2017-12-13T07:04:17.399Z,88.10
2017-12-13T07:06:47.221Z,88.20
2017-12-13T07:09:16.204Z,88.20
2017-12-13T07:11:45.709Z,88.20
2017-12-13T07:14:15.240Z,87.80
2017-12-13T07:16:44.208Z,87.80
2017-12-13T07:19:13.930Z,87.20
2017-12-13T07:21:42.677Z,87.20
2017-12-13T07:24:11.396Z,87.20
2017-12-13T07:26:40.900Z,87.40
2017-12-13T07:29:10.482Z,87.30
2017-12-13T07:31:39.088Z,87.30
2017-12-13T07:34:08.613Z,87.30
2017-12-13T07:36:37.377Z,87.30
2017-12-13T07:39:07.213Z,86.60
2017-12-13T07:41:36.944Z,86.70
2017-12-13T07:44:05.898Z,86.70
2017-12-13T07:46:34.187Z,86.60
2017-12-13T07:49:03.929Z,86.80
2017-12-13T07:51:32.663Z,86.80
2017-12-13T07:54:01.414Z,86.50
2017-12-13T07:56:30.231Z,86.70
2017-12-13T07:58:58.961Z,86.70
2017-12-13T08:01:28.654Z,86.30
2017-12-13T08:03:57.403Z,86.30
2017-12-13T08:06:26.357Z,86.10
2017-12-13T08:08:56.052Z,86.40
2017-12-13T08:11:25.567Z,86.30
2017-12-13T08:13:55.049Z,86.20
2017-12-13T08:16:23.804Z,86.20
2017-12-13T08:18:52.529Z,85.60
2017-12-13T08:21:21.318Z,85.30
2017-12-13T08:23:50.029Z,84.80
2017-12-13T08:26:19.487Z,84.20
2017-12-13T08:28:48.199Z,84.20
2017-12-13T08:31:16.918Z,84.20
2017-12-13T08:33:45.673Z,83.10
2017-12-13T08:36:14.705Z,83.00
2017-12-13T08:38:43.558Z,82.00
2017-12-13T08:41:12.278Z,82.50
2017-12-13T08:43:41.038Z,82.30
2017-12-13T08:46:09.842Z,83.00
2017-12-13T08:48:38.819Z,82.30
2017-12-13T08:51:07.607Z,82.50
2017-12-13T08:53:36.322Z,80.90
2017-12-13T08:56:05.322Z,81.00
2017-12-13T08:58:34.841Z,79.90
2017-12-13T09:01:03.566Z,79.80
2017-12-13T09:03:33.503Z,80.10
2017-12-13T09:06:02.518Z,80.30
2017-12-13T09:08:32.328Z,80.50
2017-12-13T09:11:02.526Z,80.50
2017-12-13T09:13:31.484Z,80.00
2017-12-13T09:16:00.225Z,79.30
2017-12-13T09:18:29.258Z,79.10
2017-12-13T09:21:02.119Z,79.00
2017-12-13T09:23:36.788Z,78.90
2017-12-13T09:26:09.116Z,79.00
2017-12-13T09:28:38.969Z,80.70
2017-12-13T09:31:08.242Z,80.60
2017-12-13T09:33:38.308Z,81.10
2017-12-13T09:36:07.553Z,81.40
2017-12-13T09:38:36.855Z,81.50
2017-12-13T09:41:06.143Z,80.70
2017-12-13T09:43:35.394Z,80.70
2017-12-13T09:46:04.682Z,79.50
2017-12-13T09:48:34.709Z,80.00
2017-12-13T09:51:04.434Z,80.30
2017-12-13T09:53:34.946Z,79.90
2017-12-13T09:56:04.209Z,79.80
2017-12-13T09:58:33.393Z,79.40
2017-12-13T10:01:03.417Z,79.70
2017-12-13T10:03:32.632Z,79.50
2017-12-13T10:06:01.796Z,80.20
2017-12-13T10:08:31.087Z,80.20
2017-12-13T10:11:01.046Z,80.40
2017-12-13T10:13:30.251Z,80.40
2017-12-13T10:15:59.496Z,79.70
2017-12-13T10:18:28.779Z,79.60
2017-12-13T10:20:57.980Z,79.90
2017-12-13T10:23:27.121Z,79.70
2017-12-13T10:25:56.732Z,79.70
2017-12-13T10:28:25.524Z,79.70
2017-12-13T10:30:54.253Z,78.20
2017-12-13T10:33:23.206Z,78.80
2017-12-13T10:35:52.153Z,78.10
2017-12-13T10:38:20.885Z,78.20
2017-12-13T10:40:49.666Z,78.40
2017-12-13T10:43:18.408Z,76.10
2017-12-13T10:45:47.176Z,70.20
2017-12-13T10:48:17.828Z,68.30
2017-12-13T10:50:48.370Z,68.20
2017-12-13T10:53:17.858Z,63.80
2017-12-13T11:07:32.233Z,65.20
2017-12-13T11:10:01.375Z,68.20
2017-12-13T11:12:29.806Z,68.20
2017-12-13T11:14:59.019Z,67.30
2017-12-13T11:17:27.449Z,67.30
2017-12-13T11:19:55.870Z,67.50
2017-12-13T11:22:25.057Z,69.30
2017-12-13T11:24:53.748Z,69.20
2017-12-13T11:27:22.123Z,70.30
2017-12-13T11:29:51.345Z,71.40
2017-12-13T11:32:19.727Z,71.30
2017-12-13T11:34:48.264Z,71.80
2017-12-13T11:37:16.945Z,71.90
2017-12-13T11:39:45.619Z,75.10
2017-12-13T11:42:15.067Z,73.60
2017-12-13T11:44:43.769Z,73.50
2017-12-13T11:47:12.441Z,73.70
2017-12-13T11:49:41.126Z,76.30
2017-12-13T11:52:09.819Z,76.00
2017-12-13T11:54:39.265Z,75.10
2017-12-13T11:57:08.695Z,73.80
2017-12-13T11:59:37.363Z,73.80
2017-12-13T12:02:06.830Z,75.30
2017-12-13T12:04:35.518Z,75.30
2017-12-13T12:07:04.206Z,74.30
2017-12-13T12:09:32.905Z,76.00
2017-12-13T12:12:01.265Z,75.40
2017-12-13T12:14:29.954Z,76.00
2017-12-13T12:16:58.641Z,77.40
2017-12-13T12:19:27.337Z,78.00
2017-12-13T12:21:56.334Z,78.60
2017-12-13T12:24:25.049Z,78.40
2017-12-13T12:26:54.517Z,79.00
2017-12-13T12:29:23.202Z,79.00
2017-12-13T12:31:51.913Z,77.20
2017-12-13T12:34:20.276Z,78.20
2017-12-13T12:36:49.033Z,77.30
2017-12-13T12:39:17.729Z,75.50
2017-12-13T12:41:46.381Z,74.40
2017-12-13T12:44:15.171Z,74.70
2017-12-13T12:46:43.897Z,75.80
2017-12-13T12:49:12.597Z,77.00
2017-12-13T12:51:41.276Z,77.70
2017-12-13T12:54:09.970Z,76.20
2017-12-13T12:56:38.644Z,75.00
2017-12-13T12:59:07.325Z,75.90
2017-12-13T13:01:36.043Z,75.30
2017-12-13T13:04:04.881Z,76.60
2017-12-13T13:06:33.539Z,77.40
2017-12-13T13:09:02.231Z,76.60
2017-12-13T13:11:30.917Z,75.60
2017-12-13T13:14:00.455Z,75.90
2017-12-13T13:16:28.802Z,75.90
2017-12-13T13:18:57.613Z,76.00
2017-12-13T13:21:27.236Z,74.60
2017-12-13T13:23:56.711Z,75.50
2017-12-13T13:26:26.165Z,73.80
2017-12-13T13:28:54.865Z,73.80
2017-12-13T13:31:23.546Z,72.50
2017-12-13T13:33:52.228Z,73.00
2017-12-13T13:36:20.586Z,72.90
2017-12-13T13:38:49.285Z,74.00
2017-12-13T13:41:18.000Z,75.10
2017-12-13T13:43:46.664Z,75.40
2017-12-13T13:46:15.361Z,77.00
2017-12-13T13:48:44.290Z,77.80
2017-12-13T13:51:13.729Z,78.40
2017-12-13T13:53:42.459Z,78.40
2017-12-13T13:56:12.056Z,77.90
2017-12-13T13:58:40.745Z,77.90
2017-12-13T14:01:09.422Z,78.40
2017-12-13T14:03:38.177Z,78.90
2017-12-13T14:06:06.865Z,79.50
2017-12-13T14:08:35.528Z,79.40
2017-12-13T14:11:04.973Z,82.20
2017-12-13T14:13:33.626Z,81.50
2017-12-13T14:16:02.283Z,81.20
2017-12-13T14:18:30.995Z,80.90
2017-12-13T14:20:59.669Z,81.50
2017-12-13T14:23:28.339Z,81.40
2017-12-13T14:25:57.225Z,80.80
2017-12-13T14:28:25.893Z,80.50
2017-12-13T14:30:54.594Z,80.90
2017-12-13T14:33:23.295Z,81.10
2017-12-13T14:35:51.973Z,81.10
2017-12-13T14:38:21.404Z,81.80
2017-12-13T14:40:50.089Z,81.80
2017-12-13T14:43:18.753Z,81.90
2017-12-13T14:45:47.447Z,82.50
2017-12-13T14:48:16.177Z,82.60
2017-12-13T14:50:45.611Z,82.60
2017-12-13T14:53:14.301Z,82.60
2017-12-13T14:55:43.019Z,83.30
2017-12-13T14:58:11.694Z,83.40
2017-12-13T15:00:40.058Z,83.70
2017-12-13T15:03:08.812Z,83.50
2017-12-13T15:05:38.714Z,83.80
2017-12-13T15:08:07.415Z,84.10
2017-12-13T15:10:36.108Z,84.50
2017-12-13T15:13:04.773Z,84.40
2017-12-13T15:15:34.252Z,85.50
2017-12-13T15:18:02.934Z,85.50
2017-12-13T15:20:31.450Z,85.40
2017-12-13T15:23:00.886Z,85.50
2017-12-13T15:25:30.317Z,85.60
2017-12-13T15:27:59.029Z,85.60
2017-12-13T15:30:27.762Z,85.80
2017-12-13T15:32:56.255Z,86.30
2017-12-13T15:35:24.965Z,86.60
2017-12-13T15:37:53.366Z,86.90
2017-12-13T15:40:22.114Z,87.00
2017-12-13T15:42:50.843Z,87.60
2017-12-13T15:45:19.807Z,88.00
2017-12-13T15:47:48.698Z,88.10
2017-12-13T15:50:17.449Z,88.30
2017-12-13T15:52:46.141Z,88.10
2017-12-13T15:55:14.837Z,88.30
2017-12-13T15:57:43.565Z,88.30
2017-12-13T16:00:12.254Z,88.10
2017-12-13T16:02:41.197Z,88.10
2017-12-13T16:05:09.885Z,88.20
2017-12-13T16:07:38.585Z,88.30
2017-12-13T16:10:07.307Z,87.90
2017-12-13T16:12:35.991Z,87.50
2017-12-13T16:15:04.674Z,87.50
2017-12-13T16:17:33.375Z,87.50
2017-12-13T16:20:02.076Z,87.00
2017-12-13T16:22:31.561Z,86.90
2017-12-13T16:25:00.322Z,86.90
2017-12-13T16:27:29.069Z,86.60
2017-12-13T16:29:57.778Z,86.50
2017-12-13T16:32:26.478Z,86.50
2017-12-13T16:34:55.181Z,86.20
2017-12-13T16:37:23.608Z,86.20
2017-12-13T16:39:52.320Z,86.00
2017-12-13T16:42:20.993Z,86.20
2017-12-13T16:44:49.739Z,86.10
2017-12-13T16:47:19.225Z,86.10
2017-12-13T16:49:47.910Z,86.00
2017-12-13T16:52:16.630Z,86.10
2017-12-13T16:54:45.341Z,86.00
2017-12-13T16:57:14.808Z,85.70
2017-12-13T16:59:43.523Z,85.60
2017-12-13T17:02:12.267Z,86.00
2017-12-13T17:04:41.009Z,86.00
2017-12-13T17:07:10.562Z,85.90
2017-12-13T17:09:39.425Z,85.90
2017-12-13T17:12:08.141Z,86.00
2017-12-13T17:14:36.845Z,86.10
2017-12-13T17:17:04.891Z,86.20
2017-12-13T17:19:33.577Z,86.90
2017-12-13T17:22:02.269Z,86.80
2017-12-13T17:24:30.625Z,86.80
2017-12-13T17:26:59.318Z,86.70
2017-12-13T17:29:28.005Z,86.80
2017-12-13T17:31:56.738Z,86.70
2017-12-13T17:34:25.113Z,87.00
2017-12-13T17:36:53.802Z,86.80
2017-12-13T17:39:22.529Z,87.20
2017-12-13T17:41:51.208Z,87.10
2017-12-13T17:44:20.641Z,86.40
2017-12-13T17:46:49.358Z,86.30
2017-12-13T17:49:17.757Z,85.70
2017-12-13T17:51:46.450Z,85.90
2017-12-13T17:54:14.818Z,85.60
2017-12-13T17:56:43.533Z,85.80
2017-12-13T17:59:12.997Z,86.10
2017-12-13T18:01:41.669Z,86.20
2017-12-13T18:04:10.396Z,86.30
2017-12-13T18:06:39.103Z,86.20
2017-12-13T18:09:08.553Z,86.30
2017-12-13T18:11:37.258Z,86.30
2017-12-13T18:14:05.945Z,87.10
2017-12-13T18:16:34.621Z,86.80
2017-12-13T18:19:03.325Z,87.00
2017-12-13T18:21:31.994Z,87.30
2017-12-13T18:24:00.714Z,87.40
2017-12-13T18:26:29.398Z,87.50
2017-12-13T18:28:57.770Z,87.50
2017-12-13T18:31:26.559Z,87.60
2017-12-13T18:33:55.257Z,88.00
2017-12-13T18:36:24.661Z,88.40
2017-12-13T18:38:53.471Z,88.20
2017-12-13T18:41:22.177Z,88.20
2017-12-13T18:43:50.865Z,87.80
2017-12-13T18:46:19.240Z,87.70
2017-12-13T18:48:48.058Z,87.80
2017-12-13T18:51:16.737Z,88.20
2017-12-13T18:53:46.355Z,88.20
2017-12-13T18:56:15.833Z,88.00
2017-12-13T18:58:43.817Z,87.90
2017-12-13T19:01:11.862Z,88.40
2017-12-13T19:03:40.834Z,88.40
2017-12-13T19:06:09.481Z,88.40
2017-12-13T19:08:38.919Z,88.30
2017-12-13T19:11:07.569Z,88.30
2017-12-13T19:13:36.216Z,88.20
2017-12-13T19:16:05.313Z,88.50
2017-12-13T19:18:35.132Z,88.40
2017-12-13T19:21:03.825Z,88.40
2017-12-13T19:23:32.573Z,88.60
2017-12-13T19:26:01.224Z,88.50
2017-12-13T19:28:29.885Z,88.60
2017-12-13T19:30:59.296Z,88.80
2017-12-13T19:33:28.701Z,89.20
2017-12-13T19:35:57.357Z,89.20
2017-12-13T19:38:26.001Z,89.30
2017-12-13T19:40:54.675Z,89.00
2017-12-13T19:43:23.324Z,89.20
2017-12-13T19:45:52.777Z,89.30
2017-12-13T19:48:21.469Z,89.20
2017-12-13T19:50:50.112Z,89.20
2017-12-13T19:53:19.537Z,89.20
2017-12-13T19:55:48.220Z,89.20
2017-12-13T19:58:16.869Z,89.50
2017-12-13T20:00:45.778Z,89.90
2017-12-13T20:03:15.225Z,90.10
2017-12-13T20:05:43.872Z,90.10
2017-12-13T20:08:17.232Z,90.10
2017-12-13T20:10:45.885Z,90.20
2017-12-13T20:13:15.389Z,90.20
2017-12-13T20:15:44.397Z,90.30
2017-12-13T20:18:13.044Z,90.30
2017-12-13T20:20:41.685Z,90.30
2017-12-13T20:23:10.349Z,90.30
2017-12-13T20:25:39.061Z,90.40
2017-12-13T20:28:07.798Z,90.30
2017-12-13T20:30:36.641Z,90.30
2017-12-13T20:33:05.336Z,90.20
2017-12-13T20:35:34.013Z,90.20
2017-12-13T20:38:02.685Z,90.30
2017-12-13T20:40:31.331Z,90.30
2017-12-13T20:43:00.793Z,90.30
2017-12-13T20:45:29.449Z,90.30
2017-12-13T20:47:58.089Z,90.30
2017-12-13T20:50:26.769Z,90.30
2017-12-13T20:52:55.421Z,90.30
2017-12-13T20:55:24.078Z,90.30
2017-12-13T20:57:52.751Z,90.20
2017-12-13T21:00:22.169Z,90.10
2017-12-13T21:02:50.816Z,90.10
2017-12-13T21:05:19.489Z,90.10
2017-12-13T21:07:48.152Z,90.10
2017-12-13T21:10:16.799Z,90.10
2017-12-13T21:12:45.502Z,90.10
2017-12-13T21:15:14.446Z,90.10
2017-12-13T21:17:43.101Z,90.00
2017-12-13T21:20:11.797Z,90.00
2017-12-13T21:22:40.643Z,90.00
2017-12-13T21:25:10.068Z,90.10
2017-12-13T21:27:38.717Z,90.10
2017-12-13T21:30:07.052Z,90.00
2017-12-13T21:32:36.485Z,90.00
2017-12-13T21:35:05.136Z,90.00
2017-12-13T21:37:33.825Z,90.00
2017-12-13T21:40:02.480Z,90.00
2017-12-13T21:42:32.034Z,89.60
2017-12-13T21:45:00.689Z,89.60
2017-12-13T21:47:29.353Z,89.90
2017-12-13T21:49:58.030Z,90.00
2017-12-13T21:52:26.681Z,90.00
2017-12-13T21:54:55.328Z,89.70
2017-12-13T21:57:24.772Z,90.00
2017-12-13T21:59:53.409Z,90.00
2017-12-13T22:02:22.867Z,89.70
2017-12-13T22:04:52.489Z,89.70
2017-12-13T22:07:21.187Z,89.60
2017-12-13T22:10:40.422Z,89.80
2017-12-13T22:13:09.849Z,90.00
2017-12-13T22:15:39.306Z,90.00
2017-12-13T22:18:07.990Z,90.00
2017-12-13T22:20:36.681Z,89.60
2017-12-13T22:23:05.480Z,89.50
2017-12-13T22:25:34.140Z,89.30
2017-12-13T22:28:02.801Z,89.50
2017-12-13T22:30:31.449Z,89.60
2017-12-13T22:33:00.097Z,89.50
2017-12-13T22:35:28.802Z,89.70
2017-12-13T22:37:57.473Z,89.70
2017-12-13T22:40:26.125Z,89.80
2017-12-13T22:42:54.795Z,89.60
2017-12-13T22:45:23.513Z,89.70
2017-12-13T22:47:52.174Z,89.80
2017-12-13T22:50:21.609Z,89.70
2017-12-13T22:52:50.297Z,89.70
2017-12-13T22:55:18.938Z,89.60
2017-12-13T22:57:47.612Z,89.60
2017-12-13T23:00:16.288Z,89.80
2017-12-13T23:02:44.956Z,89.40
2017-12-13T23:05:13.609Z,89.50
2017-12-13T23:07:43.054Z,89.40
2017-12-13T23:10:11.701Z,89.40
2017-12-13T23:12:41.118Z,89.50
2017-12-13T23:15:09.793Z,89.50
2017-12-13T23:17:38.445Z,89.50
2017-12-13T23:20:07.084Z,89.20
2017-12-13T23:22:35.800Z,89.10
2017-12-13T23:25:04.468Z,89.00
2017-12-13T23:27:32.472Z,88.90
2017-12-13T23:30:01.149Z,89.20
2017-12-13T23:32:29.817Z,89.40
2017-12-13T23:34:58.136Z,89.50
2017-12-13T23:37:26.800Z,89.40
2017-12-13T23:39:55.480Z,89.00
2017-12-13T23:42:24.129Z,89.00
2017-12-13T23:44:52.781Z,89.30
2017-12-13T23:47:21.453Z,89.30
2017-12-13T23:49:50.109Z,89.40
2017-12-13T23:52:18.754Z,89.20
2017-12-13T23:54:48.189Z,89.50
2017-12-13T23:57:16.833Z,89.50
2017-12-13T23:59:45.493Z,89.50
